createdAt,value
2018-04-05T00:02:14.930Z,15.20
2018-04-05T00:04:42.389Z,15.30
2018-04-05T00:07:09.869Z,15.30
2018-04-05T00:09:37.359Z,15.30
2018-04-05T00:12:05.576Z,15.30
2018-04-05T00:14:33.088Z,15.30
2018-04-05T00:17:00.569Z,15.40
2018-04-05T00:19:28.056Z,15.40
2018-04-05T00:21:56.340Z,15.40
2018-04-05T00:24:23.868Z,15.40
2018-04-05T00:26:52.088Z,15.50
2018-04-05T00:29:19.573Z,15.50
2018-04-05T00:31:47.805Z,15.50
2018-04-05T00:34:15.297Z,15.50
2018-04-05T00:36:42.786Z,15.50
2018-04-05T00:39:10.290Z,15.50
2018-04-05T00:41:38.926Z,15.50
2018-04-05T00:44:06.400Z,15.60
2018-04-05T00:46:33.887Z,15.60
2018-04-05T00:49:01.346Z,15.60
2018-04-05T00:51:28.825Z,15.60
2018-04-05T00:53:56.338Z,15.60
2018-04-05T00:56:23.834Z,15.60
2018-04-05T00:58:51.328Z,15.60
2018-04-05T01:01:19.593Z,15.70
2018-04-05T01:03:47.067Z,15.60
2018-04-05T01:06:14.560Z,15.70
2018-04-05T01:08:42.021Z,15.70
2018-04-05T01:11:09.530Z,15.60
2018-04-05T01:13:37.084Z,15.70
2018-04-05T01:16:04.559Z,15.70
2018-04-05T01:18:32.049Z,15.60
2018-04-05T01:21:00.289Z,15.60
2018-04-05T01:23:27.770Z,15.60
2018-04-05T01:25:55.251Z,15.50
2018-04-05T01:28:22.738Z,15.50
2018-04-05T01:30:50.218Z,15.50
2018-04-05T01:33:29.742Z,15.50
2018-04-05T01:35:57.230Z,15.50
2018-04-05T01:38:25.524Z,15.40
2018-04-05T01:40:53.016Z,15.40
2018-04-05T01:43:21.321Z,15.40
2018-04-05T01:45:48.780Z,15.40
2018-04-05T01:48:16.266Z,15.40
2018-04-05T01:50:43.736Z,15.40
2018-04-05T01:53:11.226Z,15.30
2018-04-05T01:55:38.693Z,15.30
2018-04-05T01:58:06.210Z,15.30
2018-04-05T02:00:33.712Z,15.30
2018-04-05T02:03:03.533Z,15.30
2018-04-05T02:05:31.776Z,15.30
2018-04-05T02:07:59.253Z,15.30
2018-04-05T02:10:26.762Z,15.30
2018-04-05T02:12:54.990Z,15.30
2018-04-05T02:15:22.473Z,15.30
2018-04-05T02:17:49.941Z,15.30
2018-04-05T02:20:17.435Z,15.40
2018-04-05T02:22:44.900Z,15.30
2018-04-05T02:25:12.402Z,15.40
2018-04-05T02:27:40.681Z,15.40
2018-04-05T02:30:08.212Z,15.30
2018-04-05T02:32:35.742Z,15.40
2018-04-05T02:35:04.091Z,15.40
2018-04-05T02:37:31.581Z,15.30
2018-04-05T02:40:00.689Z,15.30
2018-04-05T02:42:28.225Z,15.30
2018-04-05T02:44:55.713Z,15.30
2018-04-05T02:47:23.193Z,15.30
2018-04-05T02:49:50.665Z,15.30
2018-04-05T02:52:18.141Z,15.30
2018-04-05T02:54:45.624Z,15.30
2018-04-05T02:57:13.109Z,15.30
2018-04-05T02:59:40.605Z,15.30
2018-04-05T03:02:08.088Z,15.30
2018-04-05T03:04:35.572Z,15.30
2018-04-05T03:07:03.045Z,15.30
2018-04-05T03:09:30.527Z,15.30
2018-04-05T03:11:57.997Z,15.30
2018-04-05T03:14:25.510Z,15.30
2018-04-05T03:16:53.738Z,15.20
2018-04-05T03:19:21.282Z,15.30
2018-04-05T03:21:48.753Z,15.30
2018-04-05T03:24:17.001Z,15.30
2018-04-05T03:26:44.472Z,15.30
2018-04-05T03:29:11.961Z,15.30
2018-04-05T03:31:40.193Z,15.30
2018-04-05T03:34:07.696Z,15.30
2018-04-05T03:36:35.181Z,15.30
2018-04-05T03:39:02.666Z,15.30
2018-04-05T03:41:30.154Z,15.30
2018-04-05T03:43:57.635Z,15.30
2018-04-05T03:46:25.284Z,15.30
2018-04-05T03:48:52.797Z,15.30
2018-04-05T03:51:20.281Z,15.30
2018-04-05T03:53:47.746Z,15.30
2018-04-05T03:56:15.233Z,15.30
2018-04-05T03:58:42.782Z,15.30
2018-04-05T04:01:10.283Z,15.30
2018-04-05T04:03:37.750Z,15.30
2018-04-05T04:06:05.255Z,15.30
2018-04-05T04:08:33.518Z,15.20
2018-04-05T04:11:00.978Z,15.20
2018-04-05T04:13:28.509Z,15.20
2018-04-05T04:15:55.978Z,15.20
2018-04-05T04:18:23.458Z,15.20
2018-04-05T04:20:50.929Z,15.20
2018-04-05T04:23:18.418Z,15.20
2018-04-05T04:25:45.915Z,15.20
2018-04-05T04:28:13.407Z,15.30
2018-04-05T04:30:40.898Z,15.20
2018-04-05T04:33:08.369Z,15.30
2018-04-05T04:35:36.614Z,15.30
2018-04-05T04:38:04.090Z,15.30
2018-04-05T04:40:31.605Z,15.30
2018-04-05T04:42:59.067Z,15.30
2018-04-05T04:45:27.323Z,15.30
2018-04-05T04:47:54.785Z,15.30
2018-04-05T04:50:22.276Z,15.30
2018-04-05T04:52:49.733Z,15.30
2018-04-05T04:55:17.194Z,15.30
2018-04-05T04:57:44.669Z,15.30
2018-04-05T05:00:12.147Z,15.30
2018-04-05T05:02:39.706Z,15.30
2018-04-05T05:05:07.171Z,15.40
2018-04-05T05:07:34.653Z,15.30
2018-04-05T05:10:02.126Z,15.30
2018-04-05T05:12:29.612Z,15.40
2018-04-05T05:14:57.131Z,15.40
2018-04-05T05:17:25.334Z,15.40
2018-04-05T05:19:52.805Z,15.40
2018-04-05T05:22:20.295Z,15.40
2018-04-05T05:24:47.765Z,15.40
2018-04-05T05:27:15.258Z,15.40
2018-04-05T05:29:42.804Z,15.50
2018-04-05T05:32:10.285Z,15.50
2018-04-05T05:34:37.761Z,15.50
2018-04-05T05:37:05.239Z,15.50
2018-04-05T05:39:32.711Z,15.40
2018-04-05T05:42:00.201Z,15.40
2018-04-05T05:44:28.439Z,15.30
2018-04-05T05:46:56.607Z,15.30
2018-04-05T05:49:24.099Z,15.20
2018-04-05T05:51:51.561Z,15.20
2018-04-05T05:54:19.043Z,15.20
2018-04-05T05:56:46.540Z,15.10
2018-04-05T05:59:14.054Z,15.10
2018-04-05T06:01:41.521Z,15.10
2018-04-05T06:04:09.001Z,15.10
2018-04-05T06:06:36.489Z,15.10
2018-04-05T06:09:03.974Z,15.00
2018-04-05T06:11:31.497Z,15.00
2018-04-05T06:13:58.992Z,15.00
2018-04-05T06:16:26.476Z,15.00
2018-04-05T06:18:53.985Z,15.00
2018-04-05T06:21:22.219Z,15.00
2018-04-05T06:23:49.698Z,15.00
2018-04-05T06:26:17.183Z,15.00
2018-04-05T06:28:45.450Z,15.10
2018-04-05T06:31:12.974Z,15.10
2018-04-05T06:33:41.212Z,15.10
2018-04-05T06:36:08.693Z,15.10
2018-04-05T06:38:36.237Z,15.10
2018-04-05T06:41:03.719Z,15.10
2018-04-05T06:43:31.189Z,15.10
2018-04-05T06:45:58.671Z,15.10
2018-04-05T06:48:26.181Z,15.20
2018-04-05T06:50:53.661Z,15.20
2018-04-05T06:53:21.939Z,15.20
2018-04-05T06:55:49.401Z,15.20
2018-04-05T06:58:16.875Z,15.20
2018-04-05T07:00:44.365Z,15.20
2018-04-05T07:03:12.593Z,15.30
2018-04-05T07:05:40.057Z,15.20
2018-04-05T07:08:07.559Z,15.30
2018-04-05T07:10:35.089Z,15.30
2018-04-05T07:13:02.573Z,15.30
2018-04-05T07:15:30.042Z,15.30
2018-04-05T07:17:57.528Z,15.30
2018-04-05T07:20:25.013Z,15.30
2018-04-05T07:22:52.497Z,15.40
2018-04-05T07:25:19.988Z,15.50
2018-04-05T07:27:48.239Z,15.90
2018-04-05T07:30:15.706Z,15.90
2018-04-05T07:32:43.184Z,16.30
2018-04-05T07:35:10.640Z,16.60
2018-04-05T07:37:38.122Z,16.90
2018-04-05T07:40:05.585Z,17.30
2018-04-05T07:42:33.056Z,17.60
2018-04-05T07:45:00.546Z,17.90
2018-04-05T07:47:28.053Z,18.10
2018-04-05T07:49:56.341Z,18.40
2018-04-05T07:52:23.838Z,18.40
2018-04-05T07:54:51.326Z,18.50
2018-04-05T07:57:18.953Z,18.60
2018-04-05T07:59:47.283Z,19.00
2018-04-05T08:02:14.765Z,19.00
2018-04-05T08:04:42.244Z,19.40
2018-04-05T08:07:09.710Z,19.80
2018-04-05T08:09:37.199Z,20.20
2018-04-05T08:12:04.690Z,20.70
2018-04-05T08:14:32.976Z,21.30
2018-04-05T08:17:00.442Z,21.30
2018-04-05T08:19:28.086Z,21.50
2018-04-05T08:21:55.627Z,21.60
2018-04-05T08:24:23.110Z,21.60
2018-04-05T08:26:50.645Z,21.60
2018-04-05T08:29:18.926Z,21.50
2018-04-05T08:31:46.451Z,21.50
2018-04-05T08:34:13.964Z,21.40
2018-04-05T08:36:41.439Z,21.30
2018-04-05T08:39:08.908Z,21.20
2018-04-05T08:41:36.436Z,21.00
2018-04-05T08:44:03.998Z,20.90
2018-04-05T08:46:31.496Z,20.70
2018-04-05T08:48:58.960Z,20.50
2018-04-05T08:51:26.478Z,20.40
2018-04-05T08:53:54.721Z,20.10
2018-04-05T08:56:22.206Z,20.10
2018-04-05T08:58:49.695Z,20.00
2018-04-05T09:01:17.197Z,19.90
2018-04-05T09:03:45.866Z,19.70
2018-04-05T09:06:13.347Z,19.70
2018-04-05T09:08:40.827Z,19.70
2018-04-05T09:11:09.068Z,19.60
2018-04-05T09:13:36.553Z,19.60
2018-04-05T09:16:04.034Z,19.60
2018-04-05T09:18:31.537Z,19.50
2018-04-05T09:20:59.774Z,19.30
2018-04-05T09:23:27.261Z,19.30
2018-04-05T09:25:54.743Z,19.20
2018-04-05T09:28:22.337Z,19.10
2018-04-05T09:30:50.561Z,18.20
2018-04-05T09:33:18.045Z,18.90
2018-04-05T09:35:45.584Z,18.80
2018-04-05T09:38:13.090Z,18.70
2018-04-05T09:40:40.623Z,18.70
2018-04-05T09:43:08.906Z,18.50
2018-04-05T09:45:37.159Z,18.20
2018-04-05T09:48:04.630Z,18.20
2018-04-05T09:50:32.111Z,18.10
2018-04-05T09:52:59.572Z,17.80
2018-04-05T09:55:27.052Z,17.60
2018-04-05T09:57:54.512Z,17.40
2018-04-05T10:00:25.533Z,17.30
2018-04-05T10:02:58.566Z,17.20
2018-04-05T10:05:26.354Z,17.10
2018-04-05T10:07:53.827Z,17.10
2018-04-05T10:10:21.350Z,17.10
2018-04-05T10:12:48.809Z,17.10
2018-04-05T10:15:16.314Z,17.20
2018-04-05T10:17:44.590Z,17.20
2018-04-05T10:20:12.054Z,17.20
2018-04-05T10:22:39.530Z,17.20
2018-04-05T10:25:07.014Z,17.20
2018-04-05T10:27:34.500Z,17.20
2018-04-05T10:30:01.978Z,17.20
2018-04-05T10:32:29.471Z,17.20
2018-04-05T10:34:56.931Z,17.30
2018-04-05T10:37:24.414Z,17.40
2018-04-05T10:39:52.641Z,17.80
2018-04-05T10:42:20.117Z,17.70
2018-04-05T10:44:47.589Z,17.90
2018-04-05T10:47:15.093Z,18.00
2018-04-05T10:49:42.557Z,18.10
2018-04-05T10:52:10.019Z,18.20
2018-04-05T10:54:37.506Z,18.20
2018-04-05T10:57:04.966Z,18.30
2018-04-05T10:59:32.451Z,18.40
2018-04-05T11:01:59.937Z,18.40
2018-04-05T11:04:27.432Z,18.40
2018-04-05T11:06:54.920Z,18.30
2018-04-05T11:09:22.409Z,18.30
2018-04-05T11:11:49.879Z,18.20
2018-04-05T11:14:17.358Z,18.10
2018-04-05T11:16:44.844Z,18.10
2018-04-05T11:19:12.321Z,18.00
2018-04-05T11:21:39.846Z,18.00
2018-04-05T11:24:07.321Z,17.90
2018-04-05T11:26:34.841Z,17.90
2018-04-05T11:29:02.331Z,17.90
2018-04-05T11:31:30.555Z,17.90
2018-04-05T11:33:58.032Z,17.90
2018-04-05T11:36:25.507Z,17.90
2018-04-05T11:38:52.966Z,17.80
2018-04-05T11:41:20.449Z,17.70
2018-04-05T11:43:47.926Z,17.60
2018-04-05T11:46:15.406Z,17.60
2018-04-05T11:48:43.657Z,17.50
2018-04-05T11:51:11.135Z,17.50
2018-04-05T11:53:38.602Z,17.50
2018-04-05T11:56:06.093Z,17.50
2018-04-05T11:58:33.579Z,17.60
2018-04-05T12:01:01.070Z,17.70
2018-04-05T12:03:28.543Z,17.90
2018-04-05T12:05:56.822Z,18.50
2018-04-05T12:08:24.462Z,18.40
2018-04-05T12:10:51.945Z,18.60
2018-04-05T12:13:19.426Z,18.70
2018-04-05T12:15:46.906Z,18.80
2018-04-05T12:18:15.161Z,18.80
2018-04-05T12:20:42.643Z,18.80
2018-04-05T12:23:10.106Z,18.80
2018-04-05T12:25:37.628Z,18.80
2018-04-05T12:28:05.117Z,18.80
2018-04-05T12:30:32.618Z,18.90
2018-04-05T12:33:00.101Z,19.00
2018-04-05T12:35:28.343Z,19.30
2018-04-05T12:37:55.858Z,19.30
2018-04-05T12:40:23.316Z,19.50
2018-04-05T12:42:50.959Z,19.80
2018-04-05T12:45:19.186Z,20.60
2018-04-05T12:47:46.669Z,20.60
2018-04-05T12:50:14.128Z,21.10
2018-04-05T12:52:41.782Z,21.60
2018-04-05T12:55:10.065Z,22.20
2018-04-05T12:57:37.554Z,22.20
2018-04-05T13:00:05.029Z,22.50
2018-04-05T13:02:32.540Z,22.80
2018-04-05T13:05:00.942Z,23.00
2018-04-05T13:07:28.425Z,22.90
2018-04-05T13:09:56.653Z,22.60
2018-04-05T13:12:24.121Z,22.60
2018-04-05T13:14:51.672Z,22.40
2018-04-05T13:17:19.186Z,22.10
2018-04-05T13:19:46.693Z,21.80
2018-04-05T13:22:14.936Z,21.30
2018-04-05T13:24:42.410Z,21.30
2018-04-05T13:27:09.890Z,21.00
2018-04-05T13:29:37.379Z,20.80
2018-04-05T13:32:04.903Z,20.60
2018-04-05T13:34:32.562Z,20.40
2018-04-05T13:37:00.089Z,20.30
2018-04-05T13:39:27.598Z,20.20
2018-04-05T13:41:55.833Z,20.10
2018-04-05T13:44:23.356Z,20.10
2018-04-05T13:46:51.642Z,20.10
2018-04-05T13:49:19.893Z,20.00
2018-04-05T13:51:47.352Z,20.00
2018-04-05T13:54:14.832Z,20.00
2018-04-05T13:56:42.393Z,20.00
2018-04-05T13:59:09.953Z,19.90
2018-04-05T14:01:37.520Z,19.80
2018-04-05T14:04:05.088Z,19.70
2018-04-05T14:06:33.533Z,19.50
2018-04-05T14:09:00.998Z,19.50
2018-04-05T14:11:28.481Z,19.30
2018-04-05T14:13:55.942Z,19.20
2018-04-05T14:16:23.443Z,19.10
2018-04-05T14:18:51.678Z,18.80
2018-04-05T14:21:19.187Z,18.80
2018-04-05T14:23:47.417Z,18.70
2018-04-05T14:26:15.073Z,18.70
2018-04-05T14:28:42.553Z,18.60
2018-04-05T14:31:10.022Z,18.50
2018-04-05T14:33:37.553Z,18.50
2018-04-05T14:36:05.792Z,18.30
2018-04-05T14:38:33.293Z,18.30
2018-04-05T14:41:00.782Z,18.20
2018-04-05T14:43:28.275Z,18.10
2018-04-05T14:45:56.519Z,18.00
2018-04-05T14:48:24.013Z,17.90
2018-04-05T14:50:51.502Z,17.90
2018-04-05T14:53:19.749Z,17.90
2018-04-05T14:55:47.218Z,17.90
2018-04-05T14:58:14.708Z,18.00
2018-04-05T15:00:42.190Z,18.00
2018-04-05T15:03:09.692Z,18.00
2018-04-05T15:05:37.157Z,18.00
2018-04-05T15:08:05.382Z,18.30
2018-04-05T15:10:32.883Z,18.30
2018-04-05T15:13:00.365Z,18.80
2018-04-05T15:15:27.859Z,19.40
2018-04-05T15:17:55.326Z,20.00
2018-04-05T15:20:23.564Z,20.90
2018-04-05T15:22:51.055Z,20.90
2018-04-05T15:25:18.673Z,21.00
2018-04-05T15:27:46.141Z,21.00
2018-04-05T15:30:13.624Z,20.80
2018-04-05T15:32:41.122Z,20.60
2018-04-05T15:35:08.651Z,20.40
2018-04-05T15:37:36.097Z,20.10
2018-04-05T15:40:03.587Z,19.90
2018-04-05T15:42:31.812Z,19.40
2018-04-05T15:44:59.356Z,19.40
2018-04-05T15:47:26.929Z,19.10
2018-04-05T15:49:54.414Z,18.90
2018-04-05T15:52:21.886Z,18.70
2018-04-05T15:54:49.384Z,18.50
2018-04-05T15:57:17.665Z,18.20
2018-04-05T15:59:45.195Z,18.20
2018-04-05T16:02:13.696Z,18.00
2018-04-05T16:04:41.270Z,18.00
2018-04-05T16:07:08.758Z,18.00
2018-04-05T16:09:36.220Z,18.00
2018-04-05T16:12:03.709Z,18.00
2018-04-05T16:14:31.189Z,18.00
2018-04-05T16:16:58.713Z,18.00
2018-04-05T16:19:26.941Z,18.00
2018-04-05T16:21:54.426Z,18.00
2018-04-05T16:24:21.898Z,18.00
2018-04-05T16:26:49.374Z,18.00
2018-04-05T16:29:16.846Z,18.00
2018-04-05T16:31:44.322Z,17.90
2018-04-05T16:34:11.877Z,17.90
2018-04-05T16:36:39.617Z,17.80
2018-04-05T16:39:07.294Z,17.80
2018-04-05T16:41:34.801Z,17.70
2018-04-05T16:44:02.274Z,17.60
2018-04-05T16:46:29.740Z,17.60
2018-04-05T16:48:57.371Z,17.50
2018-04-05T16:51:24.889Z,17.40
2018-04-05T16:53:52.402Z,17.30
2018-04-05T16:56:20.677Z,17.10
2018-04-05T16:58:48.954Z,17.00
2018-04-05T17:01:16.438Z,17.00
2018-04-05T17:03:43.925Z,16.90
2018-04-05T17:06:12.592Z,16.80
2018-04-05T17:08:40.934Z,16.80
2018-04-05T17:11:08.547Z,16.70
2018-04-05T17:13:37.044Z,16.70
2018-04-05T17:16:04.520Z,16.60
2018-04-05T17:18:32.078Z,16.60
2018-04-05T17:20:59.646Z,16.50
2018-04-05T17:23:27.155Z,16.50
2018-04-05T17:25:54.630Z,16.40
2018-04-05T17:28:22.129Z,16.40
2018-04-05T17:30:49.653Z,16.30
2018-04-05T17:33:17.106Z,16.30
2018-04-05T17:35:44.597Z,16.20
2018-04-05T17:38:12.074Z,16.20
2018-04-05T17:40:39.558Z,16.10
2018-04-05T17:43:07.834Z,16.00
2018-04-05T17:45:35.299Z,16.00
2018-04-05T17:48:02.789Z,16.00
2018-04-05T17:50:30.269Z,16.00
2018-04-05T17:52:58.509Z,15.90
2018-04-05T17:55:25.993Z,15.90
2018-04-05T17:57:54.226Z,15.90
2018-04-05T18:00:21.729Z,15.90
2018-04-05T18:02:49.207Z,15.90
2018-04-05T18:05:16.675Z,15.80
2018-04-05T18:07:44.160Z,15.80
2018-04-05T18:10:11.632Z,15.80
2018-04-05T18:12:39.112Z,15.70
2018-04-05T18:15:06.584Z,15.60
2018-04-05T18:17:34.061Z,15.70
2018-04-05T18:20:01.719Z,15.60
2018-04-05T18:22:29.237Z,15.50
2018-04-05T18:24:56.715Z,15.50
2018-04-05T18:27:24.959Z,15.40
2018-04-05T18:29:52.427Z,15.40
2018-04-05T18:32:19.952Z,15.40
2018-04-05T18:34:47.425Z,15.30
2018-04-05T18:37:14.929Z,15.30
2018-04-05T18:39:42.398Z,15.20
2018-04-05T18:42:09.884Z,15.20
2018-04-05T18:44:37.351Z,15.10
2018-04-05T18:47:05.606Z,15.00
2018-04-05T18:49:33.062Z,15.00
2018-04-05T18:52:00.560Z,15.00
2018-04-05T18:54:28.074Z,14.90
2018-04-05T18:56:55.640Z,14.90
2018-04-05T18:59:23.998Z,14.80
2018-04-05T19:01:51.476Z,14.80
2018-04-05T19:04:19.750Z,14.70
2018-04-05T19:06:47.224Z,14.60
2018-04-05T19:09:14.710Z,14.60
2018-04-05T19:11:42.170Z,14.50
2018-04-05T19:14:09.658Z,14.40
2018-04-05T19:16:37.145Z,14.40
2018-04-05T19:19:04.695Z,14.30
2018-04-05T19:21:32.172Z,14.20
2018-04-05T19:23:59.674Z,14.10
2018-04-05T19:26:27.133Z,14.10
2018-04-05T19:28:54.671Z,14.00
2018-04-05T19:31:22.186Z,13.90
2018-04-05T19:33:50.447Z,13.80
2018-04-05T19:36:17.914Z,13.80
2018-04-05T19:38:45.421Z,13.70
2018-04-05T19:41:13.666Z,13.60
2018-04-05T19:43:41.183Z,13.60
2018-04-05T19:46:08.634Z,13.60
2018-04-05T19:48:36.114Z,13.50
2018-04-05T19:51:03.625Z,13.50
2018-04-05T19:53:31.111Z,13.40
2018-04-05T19:55:58.804Z,13.30
2018-04-05T19:58:27.078Z,13.30
2018-04-05T20:00:54.579Z,13.30
2018-04-05T20:03:22.402Z,13.20
2018-04-05T20:05:49.880Z,13.20
2018-04-05T20:08:17.346Z,13.10
2018-04-05T20:10:44.839Z,13.10
2018-04-05T20:13:12.342Z,13.10
2018-04-05T20:15:39.847Z,13.00
2018-04-05T20:18:08.112Z,12.90
2018-04-05T20:20:35.601Z,12.90
2018-04-05T20:23:03.065Z,12.90
2018-04-05T20:25:30.547Z,12.90
2018-04-05T20:27:58.006Z,12.80
2018-04-05T20:30:26.362Z,12.80
2018-04-05T20:32:53.914Z,12.70
2018-04-05T20:35:21.413Z,12.70
2018-04-05T20:37:48.873Z,12.70
2018-04-05T20:40:16.386Z,12.70
2018-04-05T20:42:43.893Z,12.60
2018-04-05T20:45:11.445Z,12.60
2018-04-05T20:47:38.938Z,12.60
2018-04-05T20:50:06.412Z,12.50
2018-04-05T20:52:33.894Z,12.50
2018-04-05T20:55:01.377Z,12.50
2018-04-05T20:57:28.905Z,12.40
2018-04-05T20:59:57.226Z,12.40
2018-04-05T21:02:24.705Z,12.30
2018-04-05T21:04:52.194Z,12.30
2018-04-05T21:07:20.450Z,12.20
2018-04-05T21:09:47.917Z,12.20
2018-04-05T21:12:15.435Z,12.20
2018-04-05T21:14:42.898Z,12.20
2018-04-05T21:17:10.442Z,12.10
2018-04-05T21:19:38.629Z,12.00
2018-04-05T21:22:06.176Z,12.00
2018-04-05T21:24:34.410Z,12.00
2018-04-05T21:27:01.906Z,12.00
2018-04-05T21:29:29.387Z,11.90
2018-04-05T21:31:56.857Z,11.90
2018-04-05T21:34:24.337Z,11.90
2018-04-05T21:36:52.569Z,11.80
2018-04-05T21:39:20.057Z,11.80
2018-04-05T21:41:47.587Z,11.80
2018-04-05T21:44:15.073Z,11.70
2018-04-05T21:46:42.535Z,11.60
2018-04-05T21:49:10.018Z,11.60
2018-04-05T21:51:37.521Z,11.50
2018-04-05T21:54:05.006Z,11.50
2018-04-05T21:56:32.617Z,11.50
2018-04-05T21:59:00.108Z,11.40
2018-04-05T22:01:27.606Z,11.40
2018-04-05T22:03:55.074Z,11.30
2018-04-05T22:06:22.552Z,11.30
2018-04-05T22:08:50.029Z,11.30
2018-04-05T22:11:17.523Z,11.20
2018-04-05T22:13:45.746Z,11.10
2018-04-05T22:16:13.236Z,11.10
2018-04-05T22:18:40.706Z,11.10
2018-04-05T22:21:08.219Z,11.10
2018-04-05T22:23:35.707Z,11.00
2018-04-05T22:26:03.962Z,10.90
2018-04-05T22:28:31.430Z,10.90
2018-04-05T22:30:58.907Z,10.90
2018-04-05T22:33:27.252Z,10.80
2018-04-05T22:35:54.718Z,10.80
2018-04-05T22:38:22.199Z,10.80
2018-04-05T22:40:49.665Z,10.80
2018-04-05T22:43:17.189Z,10.70
2018-04-05T22:45:44.645Z,10.70
2018-04-05T22:48:12.138Z,10.70
2018-04-05T22:50:40.365Z,10.60
2018-04-05T22:53:07.877Z,10.60
2018-04-05T22:55:35.346Z,10.60
2018-04-05T22:58:02.858Z,10.60
2018-04-05T23:00:31.087Z,10.50
2018-04-05T23:02:58.543Z,10.50
2018-04-05T23:05:26.025Z,10.50
2018-04-05T23:07:53.502Z,10.40
2018-04-05T23:10:20.980Z,10.40
2018-04-05T23:12:48.443Z,10.40
2018-04-05T23:15:15.942Z,10.30
2018-04-05T23:17:43.651Z,10.30
2018-04-05T23:20:11.122Z,10.30
2018-04-05T23:22:38.589Z,10.30
2018-04-05T23:25:06.081Z,10.30
2018-04-05T23:27:33.545Z,10.20
2018-04-05T23:30:01.035Z,10.20
2018-04-05T23:32:28.496Z,10.20
2018-04-05T23:34:55.968Z,10.20
2018-04-05T23:37:23.429Z,10.10
2018-04-05T23:39:50.986Z,10.10
2018-04-05T23:42:18.456Z,10.10
2018-04-05T23:44:45.973Z,10.10
2018-04-05T23:47:13.449Z,10.10
2018-04-05T23:49:40.930Z,10.10
2018-04-05T23:52:08.432Z,10.10
2018-04-05T23:54:36.676Z,10.10
2018-04-05T23:57:04.166Z,10.10
2018-04-05T23:59:31.625Z,10.10
